Terminal Aerodrome Forecast
Issued by NWS

Home | Current Version | Previous Version | Text Only | Print | Product List | Glossary On
Versions: 1 2 3 4 5 6 7 8 9 10 11 12 13 14 15 16 17 18 19 20 21 22 23 24
233
FTUS45 KPSR 010236 AAA
TAFPHX
TAF AMD
KPHX 010236Z 0103/0124 23005KT P6SM SKC
     FM010700 10006KT P6SM SKC
     FM012000 27011KT P6SM SKC=

USA.gov is the U.S. government's official web portal to all federal, state and local government web resources and services.